Time;durP1;ratioP1;P1;durP2;ratioP2;P2;SDS_P1;SDS_P2;PMS_P1;PMS_P2;Temp;Humidity;BMP_temperature;BMP_pressure;BME280_temperature;BME280_humidity;BME280_pressure;Samples;Min_cycle;Max_cycle;Signal;HPM_P1;HPM_P2
2023/08/03 00:02:25;;;;;;;1999.90;999.90;;;16.40;99.90;;;;;;5055976;28;20076;-75
2023/08/03 00:04:50;;;;;;;1999.90;999.90;;;16.40;99.90;;;;;;5074011;28;20403;-74
2023/08/03 00:07:16;;;;;;;1999.90;999.90;;;16.50;99.90;;;;;;5074251;28;20045;-74
2023/08/03 00:09:46;;;;;;;1999.90;999.90;;;16.40;99.90;;;;;;5073357;28;20125;-74
2023/08/03 00:12:12;;;;;;;1999.90;999.90;;;16.50;99.90;;;;;;5073361;28;20095;-75
2023/08/03 00:14:37;;;;;;;1999.90;999.90;;;16.40;99.90;;;;;;5073220;28;20088;-75
2023/08/03 00:17:03;;;;;;;1999.90;999.90;;;16.40;99.90;;;;;;5073413;28;20059;-75
2023/08/03 00:19:29;;;;;;;1999.90;999.90;;;16.40;99.90;;;;;;5039291;28;20044;-74
2023/08/03 00:21:55;;;;;;;1999.90;999.90;;;16.40;99.90;;;;;;5074178;28;20403;-74
2023/08/03 00:24:21;;;;;;;1999.90;999.90;;;16.40;99.90;;;;;;5073297;28;20408;-74
2023/08/03 00:26:46;;;;;;;1999.90;999.90;;;16.40;99.90;;;;;;5055427;28;20045;-74
2023/08/03 00:29:12;;;;;;;1999.90;999.90;;;16.90;99.90;;;;;;5073165;28;20052;-74
2023/08/03 00:31:38;;;;;;;1999.90;999.90;;;16.50;99.90;;;;;;5073195;28;20040;-74
2023/08/03 00:34:03;;;;;;;1999.90;999.90;;;16.50;99.90;;;;;;5073151;28;20036;-73
2023/08/03 00:36:29;;;;;;;1999.90;999.90;;;16.50;99.90;;;;;;5073449;28;20079;-73
2023/08/03 00:38:55;;;;;;;1999.90;999.90;;;16.40;99.90;;;;;;5073148;28;20041;-74
2023/08/03 00:41:20;;;;;;;1999.90;999.90;;;16.40;99.90;;;;;;5073684;28;20122;-74
2023/08/03 00:43:46;;;;;;;1999.90;999.90;;;16.40;99.90;;;;;;5056231;28;20110;-74
2023/08/03 00:46:12;;;;;;;1999.90;999.90;;;16.40;99.90;;;;;;5075230;28;20403;-74
2023/08/03 00:48:37;;;;;;;1999.90;999.90;;;16.40;99.90;;;;;;5077616;28;20049;-74
2023/08/03 00:51:03;;;;;;;1999.90;999.90;;;16.40;99.90;;;;;;5076851;28;20464;-74
2023/08/03 00:53:30;;;;;;;1999.90;999.90;;;16.40;99.90;;;;;;5059812;28;20132;-74
2023/08/03 00:55:55;;;;;;;1999.90;999.90;;;16.40;99.90;;;;;;5076676;28;20044;-73
2023/08/03 00:58:21;;;;;;;1999.90;999.90;;;16.40;99.90;;;;;;5059485;28;20053;-73
2023/08/03 01:00:47;;;;;;;1999.90;999.90;;;16.40;99.90;;;;;;5076413;28;20048;-74
2023/08/03 01:03:12;;;;;;;1999.90;999.90;;;16.40;99.90;;;;;;5059038;28;20167;-74
2023/08/03 01:05:38;;;;;;;1999.90;999.90;;;16.40;99.90;;;;;;5076236;28;20068;-73
2023/08/03 01:08:04;;;;;;;1999.90;999.90;;;16.50;99.90;;;;;;5076983;28;20044;-74
2023/08/03 01:10:30;;;;;;;1999.90;999.90;;;16.40;99.90;;;;;;5077235;28;20040;-74
2023/08/03 01:12:56;;;;;;;1999.90;999.90;;;16.50;99.90;;;;;;5076331;28;20040;-74
2023/08/03 01:15:22;;;;;;;1999.90;999.90;;;16.50;99.90;;;;;;5076309;28;20404;-74
2023/08/03 01:17:48;;;;;;;1999.90;999.90;;;16.50;99.90;;;;;;5076519;28;20048;-73
2023/08/03 01:20:18;;;;;;;1999.90;999.90;;;16.40;99.90;;;;;;5058827;28;20486;-74
2023/08/03 01:22:43;;;;;;;1999.90;999.90;;;16.50;99.90;;;;;;5058558;28;20074;-74
2023/08/03 01:25:10;;;;;;;1999.90;999.90;;;16.50;99.90;;;;;;5076272;28;20128;-73
2023/08/03 01:27:36;;;;;;;1999.90;999.90;;;16.50;99.90;;;;;;5058484;28;20087;-74
2023/08/03 01:30:02;;;;;;;1999.90;999.90;;;16.50;99.90;;;;;;5076077;28;20072;-74
2023/08/03 01:32:29;;;;;;;1999.90;999.90;;;16.50;99.90;;;;;;5075924;28;20036;-74
2023/08/03 01:34:55;;;;;;;1999.90;999.90;;;16.50;99.90;;;;;;5075973;28;20051;-73
2023/08/03 01:37:20;;;;;;;1999.90;999.90;;;16.50;99.90;;;;;;5076014;28;20123;-74
2023/08/03 01:39:46;;;;;;;1999.90;999.90;;;16.50;99.90;;;;;;5075986;28;20524;-74
2023/08/03 01:42:13;;;;;;;1999.90;999.90;;;16.50;99.90;;;;;;5075954;28;20400;-74
2023/08/03 01:44:39;;;;;;;1999.90;999.90;;;16.40;99.90;;;;;;5075851;28;20055;-74
2023/08/03 01:47:04;;;;;;;1999.90;999.90;;;16.40;99.90;;;;;;5041581;28;20049;-74
2023/08/03 01:49:32;;;;;;;1999.90;999.90;;;16.50;99.90;;;;;;5075715;28;20154;-74
2023/08/03 01:51:58;;;;;;;1999.90;999.90;;;16.50;99.90;;;;;;5075861;28;20056;-74
2023/08/03 01:54:24;;;;;;;1999.90;999.90;;;16.50;99.90;;;;;;5076472;28;20048;-74
2023/08/03 01:56:50;;;;;;;1999.90;999.90;;;16.50;99.90;;;;;;5076055;28;20084;-74
2023/08/03 01:59:15;;;;;;;1999.90;999.90;;;16.50;99.90;;;;;;5075289;28;20130;-74
2023/08/03 02:01:41;;;;;;;1999.90;999.90;;;16.50;99.90;;;;;;5075647;28;20044;-74
2023/08/03 02:04:07;;;;;;;1999.90;999.90;;;16.50;99.90;;;;;;5057824;28;20047;-74
2023/08/03 02:06:33;;;;;;;1999.90;999.90;;;16.50;99.90;;;;;;5075512;28;20383;-74
2023/08/03 02:08:59;;;;;;;1999.90;999.90;;;16.50;99.90;;;;;;5075443;28;20044;-74
2023/08/03 02:11:25;;;;;;;1999.90;999.90;;;16.50;99.90;;;;;;5057558;28;20048;-74
2023/08/03 02:13:51;;;;;;;1999.90;999.90;;;16.50;99.90;;;;;;5075364;28;20369;-75
2023/08/03 02:16:16;;;;;;;1999.90;999.90;;;16.50;99.90;;;;;;5057444;28;20060;-74
2023/08/03 02:18:42;;;;;;;1999.90;999.90;;;16.50;99.90;;;;;;5040639;28;20139;-74
2023/08/03 02:21:08;;;;;;;1999.90;999.90;;;16.50;99.90;;;;;;5075777;28;20055;-73
2023/08/03 02:23:34;;;;;;;1999.90;999.90;;;16.40;99.90;;;;;;5075920;28;20045;-73
2023/08/03 02:26:03;;;;;;;1999.90;999.90;;;16.50;99.90;;;;;;5057678;28;20423;-74
2023/08/03 02:28:29;;;;;;;1999.90;999.90;;;16.50;99.90;;;;;;5074920;28;20044;-74
2023/08/03 02:30:55;;;;;;;1999.90;999.90;;;16.40;99.90;;;;;;5074880;28;20048;-74
2023/08/03 02:33:21;;;;;;;1999.90;999.90;;;16.40;99.90;;;;;;5057001;28;20049;-74
2023/08/03 02:35:46;;;;;;;1999.90;999.90;;;16.40;99.90;;;;;;5057254;28;20087;-74
2023/08/03 02:38:12;;;;;;;1999.90;999.90;;;16.40;99.90;;;;;;5057515;28;20044;-74
2023/08/03 02:40:38;;;;;;;1999.90;999.90;;;16.40;99.90;;;;;;5075035;28;20043;-74
2023/08/03 02:43:03;;;;;;;1999.90;999.90;;;16.40;99.90;;;;;;5057057;28;20442;-74
2023/08/03 02:45:29;;;;;;;1999.90;999.90;;;16.40;99.90;;;;;;5074946;28;20127;-74
2023/08/03 02:47:55;;;;;;;1999.90;999.90;;;16.40;99.90;;;;;;5074644;28;20392;-74
2023/08/03 02:50:21;;;;;;;1999.90;999.90;;;16.40;99.90;;;;;;5040793;28;20064;-75
2023/08/03 02:52:47;;;;;;;1999.90;999.90;;;16.40;99.90;;;;;;5074513;28;20044;-74
2023/08/03 02:55:13;;;;;;;1999.90;999.90;;;16.30;99.90;;;;;;5056763;28;20051;-75
2023/08/03 02:57:38;;;;;;;1999.90;999.90;;;16.30;99.90;;;;;;5074374;28;20047;-75
2023/08/03 03:00:05;;;;;;;1999.90;999.90;;;16.30;99.90;;;;;;5074255;28;20102;-74
2023/08/03 03:02:31;;;;;;;1999.90;999.90;;;16.30;99.90;;;;;;5056625;28;20127;-74
2023/08/03 03:04:57;;;;;;;1999.90;999.90;;;16.30;99.90;;;;;;5074277;28;20123;-74
2023/08/03 03:07:22;;;;;;;1999.90;999.90;;;16.30;99.90;;;;;;5039797;28;20052;-74
2023/08/03 03:09:48;;;;;;;1999.90;999.90;;;16.30;99.90;;;;;;5056190;28;20056;-74
2023/08/03 03:12:14;;;;;;;1999.90;999.90;;;16.30;99.90;;;;;;5074508;28;20045;-74
2023/08/03 03:14:39;;;;;;;1999.90;999.90;;;16.30;99.90;;;;;;5040328;28;20040;-75
2023/08/03 03:17:05;;;;;;;1999.90;999.90;;;16.30;99.90;;;;;;5056166;28;20059;-74
2023/08/03 03:19:31;;;;;;;1999.90;999.90;;;16.30;99.90;;;;;;5073680;28;20490;-75
2023/08/03 03:21:57;;;;;;;1999.90;999.90;;;16.30;99.90;;;;;;5074040;28;20045;-74
2023/08/03 03:24:22;;;;;;;1999.90;999.90;;;16.30;99.90;;;;;;5039718;28;20582;-74
2023/08/03 03:26:48;;;;;;;1999.90;999.90;;;16.30;99.90;;;;;;5057026;28;20052;-75
2023/08/03 03:29:14;;;;;;;1999.90;999.90;;;16.40;99.90;;;;;;5056388;28;20093;-74
2023/08/03 03:31:39;;;;;;;1999.90;999.90;;;16.30;99.90;;;;;;5073932;28;20373;-75
2023/08/03 03:34:05;;;;;;;1999.90;999.90;;;16.30;99.90;;;;;;5055992;28;20051;-74
2023/08/03 03:36:31;;;;;;;1999.90;999.90;;;16.30;99.90;;;;;;5073746;28;20066;-74
2023/08/03 03:38:56;;;;;;;1999.90;999.90;;;16.30;99.90;;;;;;5073739;28;20102;-74
2023/08/03 03:41:22;;;;;;;1999.90;999.90;;;16.30;99.90;;;;;;5039279;28;20480;-74
2023/08/03 03:43:48;;;;;;;1999.90;999.90;;;16.30;99.90;;;;;;5055939;28;20048;-74
2023/08/03 03:46:13;;;;;;;1999.90;999.90;;;16.30;99.90;;;;;;5074168;28;20056;-75
2023/08/03 03:48:39;;;;;;;1999.90;999.90;;;16.30;99.90;;;;;;5073437;28;20044;-78
2023/08/03 03:51:05;;;;;;;1999.90;999.90;;;16.30;99.90;;;;;;5055943;28;20094;-75
2023/08/03 03:53:30;;;;;;;1999.90;999.90;;;16.30;99.90;;;;;;5073637;28;20052;-75
2023/08/03 03:55:56;;;;;;;1999.90;999.90;;;16.30;99.90;;;;;;5074306;28;20044;-75
2023/08/03 03:58:22;;;;;;;1999.90;999.90;;;16.30;99.90;;;;;;5073505;28;20541;-74
2023/08/03 04:00:47;;;;;;;1999.90;999.90;;;16.30;99.90;;;;;;5073544;28;20071;-74
2023/08/03 04:03:13;;;;;;;1999.90;999.90;;;16.30;99.90;;;;;;5055344;28;20036;-74
2023/08/03 04:05:39;;;;;;;1999.90;999.90;;;16.30;99.90;;;;;;5055410;28;20056;-74
2023/08/03 04:08:05;;;;;;;1999.90;999.90;;;16.40;99.90;;;;;;5073769;28;20049;-74
2023/08/03 04:10:31;;;;;;;1999.90;999.90;;;16.30;99.90;;;;;;5073995;28;20468;-74
2023/08/03 04:12:57;;;;;;;1999.90;999.90;;;16.40;99.90;;;;;;5073345;28;20476;-74
2023/08/03 04:15:23;;;;;;;1999.90;999.90;;;16.40;99.90;;;;;;5055142;28;20488;-74
2023/08/03 04:17:49;;;;;;;1999.90;999.90;;;16.40;99.90;;;;;;5056130;28;20048;-75
2023/08/03 04:20:16;;;;;;;1999.90;999.90;;;16.40;99.90;;;;;;5056037;28;20048;-74
2023/08/03 04:22:42;;;;;;;1999.90;999.90;;;16.40;99.90;;;;;;5077474;28;20048;-75
2023/08/03 04:25:08;;;;;;;1999.90;999.90;;;16.40;99.90;;;;;;5059428;28;20075;-75
2023/08/03 04:27:34;;;;;;;1999.90;999.90;;;16.30;99.90;;;;;;5077411;28;20158;-74
2023/08/03 04:29:59;;;;;;;1999.90;999.90;;;16.30;99.90;;;;;;5077334;28;20084;-74
2023/08/03 04:32:25;;;;;;;1999.90;999.90;;;16.40;99.90;;;;;;5077151;28;20051;-74
2023/08/03 04:34:51;;;;;;;1999.90;999.90;;;16.40;99.90;;;;;;5077204;28;20114;-74
2023/08/03 04:37:16;;;;;;;1999.90;999.90;;;16.40;99.90;;;;;;5059526;28;20044;-74
2023/08/03 04:39:42;;;;;;;1999.90;999.90;;;16.40;99.90;;;;;;5076794;28;20488;-73
2023/08/03 04:42:08;;;;;;;1999.90;999.90;;;16.40;99.90;;;;;;5077351;28;20063;-73
2023/08/03 04:44:33;;;;;;;1999.90;999.90;;;16.40;99.90;;;;;;5042544;28;20082;-74
2023/08/03 04:46:59;;;;;;;1999.90;999.90;;;16.40;99.90;;;;;;5076971;28;20051;-74
2023/08/03 04:49:28;;;;;;;1999.90;999.90;;;16.40;99.90;;;;;;5059239;28;20051;-73
2023/08/03 04:51:53;;;;;;;1999.90;999.90;;;16.40;99.90;;;;;;5076892;28;20040;-73
2023/08/03 04:54:20;;;;;;;1999.90;999.90;;;16.40;99.90;;;;;;5076816;28;20040;-73
2023/08/03 04:56:46;;;;;;;1999.90;999.90;;;16.40;99.90;;;;;;5043141;28;20420;-73
2023/08/03 04:59:12;;;;;;;1999.90;999.90;;;16.40;99.90;;;;;;5058883;28;20110;-73
2023/08/03 05:01:37;;;;;;;1999.90;999.90;;;16.40;99.90;;;;;;5059028;28;20040;-74
2023/08/03 05:04:03;;;;;;;1999.90;999.90;;;16.40;99.90;;;;;;5076643;28;20072;-74
2023/08/03 05:06:29;;;;;;;1999.90;999.90;;;16.50;99.90;;;;;;5077187;28;20048;-74
2023/08/03 05:08:55;;;;;;;1999.90;999.90;;;16.40;99.90;;;;;;5058749;28;20441;-73
2023/08/03 05:11:21;;;;;;;1999.90;999.90;;;16.50;99.90;;;;;;5077332;28;20036;-73
2023/08/03 05:13:47;;;;;;;1999.90;999.90;;;16.50;99.90;;;;;;5041732;28;20498;-73
2023/08/03 05:16:12;;;;;;;1999.90;999.90;;;16.50;99.90;;;;;;5076245;28;20064;-73
2023/08/03 05:18:38;;;;;;;1999.90;999.90;;;16.50;99.90;;;;;;5058806;28;20127;-74
2023/08/03 05:21:04;;;;;;;1999.90;999.90;;;16.50;99.90;;;;;;5076259;28;20132;-72
2023/08/03 05:23:29;;;;;;;1999.90;999.90;;;16.50;99.90;;;;;;5042833;28;20063;-73
2023/08/03 05:25:56;;;;;;;1999.90;999.90;;;16.60;99.90;;;;;;5076572;28;20056;-73
2023/08/03 05:28:22;;;;;;;1999.90;999.90;;;16.60;99.90;;;;;;5076735;28;20052;-73
2023/08/03 05:30:48;;;;;;;1999.90;999.90;;;16.60;99.90;;;;;;5058881;28;20349;-73
2023/08/03 05:33:14;;;;;;;1999.90;999.90;;;16.60;99.90;;;;;;5075678;28;20098;-73
2023/08/03 05:35:40;;;;;;;1999.90;999.90;;;16.60;99.90;;;;;;5058743;28;20051;-73
2023/08/03 05:38:06;;;;;;;1999.90;999.90;;;16.70;99.90;;;;;;5058180;28;20058;-74
2023/08/03 05:40:32;;;;;;;1999.90;999.90;;;16.70;99.90;;;;;;5076033;28;20135;-73
2023/08/03 05:42:58;;;;;;;1999.90;999.90;;;16.70;99.90;;;;;;5076465;28;20045;-73
2023/08/03 05:45:41;;;;;;;1999.90;999.90;;;16.70;99.90;;;;;;5075922;28;20053;-73
2023/08/03 05:48:20;;;;;;;1999.90;999.90;;;16.70;99.90;;;;;;5042380;28;20488;-74
2023/08/03 05:50:48;;;;;;;1999.90;999.90;;;16.70;99.90;;;;;;5075704;28;20052;-74
2023/08/03 05:53:15;;;;;;;1999.90;999.90;;;16.70;99.90;;;;;;5075661;28;20114;-74
2023/08/03 05:55:41;;;;;;;1999.90;999.90;;;16.70;99.90;;;;;;5075723;28;20044;-74
2023/08/03 05:58:12;;;;;;;1999.90;999.90;;;16.80;99.90;;;;;;5058103;28;20053;-74
2023/08/03 06:00:40;;;;;;;1999.90;999.90;;;16.80;99.90;;;;;;5076257;28;20052;-74
2023/08/03 06:03:14;;;;;;;1999.90;999.90;;;16.80;99.90;;;;;;5075530;28;20047;-74
2023/08/03 06:05:45;;;;;;;1999.90;999.90;;;16.80;99.90;;;;;;5075737;28;20115;-74
2023/08/03 06:08:22;;;;;;;1999.90;999.90;;;16.70;99.90;;;;;;5075470;28;20057;-74
2023/08/03 06:10:55;;;;;;;1999.90;999.90;;;16.80;99.90;;;;;;5075166;28;20369;-74
2023/08/03 06:13:31;;;;;;;1999.90;999.90;;;16.70;99.90;;;;;;5075304;28;20391;-74
2023/08/03 06:15:57;;;;;;;1999.90;999.90;;;16.70;99.90;;;;;;5075663;28;20094;-74
2023/08/03 06:18:23;;;;;;;1999.90;999.90;;;16.70;99.90;;;;;;5075252;28;20135;-74
2023/08/03 06:20:50;;;;;;;1999.90;999.90;;;16.70;99.90;;;;;;5075502;28;20198;-74
2023/08/03 06:23:21;;;;;;;1999.90;999.90;;;16.70;99.90;;;;;;5075175;28;20044;-75
2023/08/03 06:25:48;;;;;;;1999.90;999.90;;;16.70;99.90;;;;;;5075112;28;20127;-74
2023/08/03 06:28:19;;;;;;;1999.90;999.90;;;16.60;99.90;;;;;;5075527;28;20117;-74
2023/08/03 06:30:46;;;;;;;1999.90;999.90;;;16.60;99.90;;;;;;5075481;28;20055;-74
2023/08/03 06:33:15;;;;;;;1999.90;999.90;;;16.60;99.90;;;;;;5074940;28;20052;-74
2023/08/03 06:35:43;;;;;;;1999.90;999.90;;;16.60;99.90;;;;;;5057371;28;20356;-74
2023/08/03 06:38:16;;;;;;;1999.90;999.90;;;16.60;99.90;;;;;;5057309;28;20542;-74
2023/08/03 06:40:45;;;;;;;1999.90;999.90;;;16.60;99.90;;;;;;5075188;28;20053;-74
2023/08/03 06:43:12;;;;;;;1999.90;999.90;;;16.60;99.90;;;;;;5073838;28;20498;-74
2023/08/03 06:45:39;;;;;;;1999.90;999.90;;;16.60;99.90;;;;;;5074703;28;20515;-74
2023/08/03 06:48:05;;;;;;;1999.90;999.90;;;16.60;99.90;;;;;;5074638;28;20044;-74
2023/08/03 06:50:32;;;;;;;1999.90;999.90;;;16.60;99.90;;;;;;5074563;28;20053;-74
2023/08/03 06:52:59;;;;;;;1999.90;999.90;;;16.60;99.90;;;;;;5074811;28;20436;-74
2023/08/03 06:55:25;;;;;;;1999.90;999.90;;;16.70;99.90;;;;;;5074548;28;20041;-74
2023/08/03 06:57:52;;;;;;;1999.90;999.90;;;16.70;99.90;;;;;;5074553;28;20098;-74
2023/08/03 07:00:18;;;;;;;1999.90;999.90;;;16.80;99.90;;;;;;5057686;28;20067;-74
2023/08/03 07:02:45;;;;;;;1999.90;999.90;;;16.80;99.90;;;;;;5056695;28;20476;-74
2023/08/03 07:05:11;;;;;;;1999.90;999.90;;;16.90;99.90;;;;;;5074053;28;20484;-74
2023/08/03 07:07:37;;;;;;;1999.90;999.90;;;16.90;99.90;;;;;;5023306;28;20052;-74
2023/08/03 07:10:03;;;;;;;1999.90;999.90;;;17.00;99.90;;;;;;5074342;28;20049;-74
2023/08/03 07:12:29;;;;;;;1999.90;999.90;;;17.00;99.90;;;;;;5074280;28;20055;-75
2023/08/03 07:14:55;;;;;;;1999.90;999.90;;;17.00;99.90;;;;;;5056261;28;20044;-74
2023/08/03 07:17:22;;;;;;;1999.90;999.90;;;17.10;99.90;;;;;;5074215;28;20059;-74
2023/08/03 07:19:50;;;;;;;1999.90;999.90;;;17.20;99.90;;;;;;5074618;28;20045;-74
2023/08/03 07:22:20;;;;;;;1999.90;999.90;;;17.20;99.90;;;;;;5074351;28;20054;-74
2023/08/03 07:24:45;;;;;;;1999.90;999.90;;;17.20;99.90;;;;;;5074019;28;20044;-76
2023/08/03 07:27:11;;;;;;;1999.90;999.90;;;17.20;99.90;;;;;;5073955;28;20048;-75
2023/08/03 07:29:37;;;;;;;1999.90;999.90;;;17.20;99.90;;;;;;5056338;28;20048;-74
2023/08/03 07:32:03;;;;;;;1999.90;999.90;;;17.20;99.90;;;;;;5073888;28;20045;-74
2023/08/03 07:34:29;;;;;;;1999.90;999.90;;;17.30;99.90;;;;;;5056780;28;20131;-75
2023/08/03 07:36:56;;;;;;;1999.90;999.90;;;17.30;99.90;;;;;;5073832;28;20127;-75
2023/08/03 07:39:22;;;;;;;1999.90;999.90;;;17.30;99.90;;;;;;5074267;28;20074;-75
2023/08/03 07:41:48;;;;;;;1999.90;999.90;;;17.30;99.90;;;;;;5077768;28;20125;-74
2023/08/03 07:44:18;;;;;;;1999.90;999.90;;;17.30;99.90;;;;;;5056339;28;20052;-74
2023/08/03 07:46:45;;;;;;;1999.90;999.90;;;17.40;99.90;;;;;;5056536;28;20082;-74
2023/08/03 07:49:11;;;;;;;1999.90;999.90;;;17.40;99.90;;;;;;5056104;28;20098;-75
2023/08/03 07:51:37;;;;;;;1999.90;999.90;;;17.40;99.90;;;;;;5057040;28;20048;-73
2023/08/03 07:54:02;;;;;;;1999.90;999.90;;;17.40;99.90;;;;;;5073486;28;20044;-77
2023/08/03 07:56:28;;;;;;;1999.90;999.90;;;17.50;99.90;;;;;;5074033;28;20044;-75
2023/08/03 07:58:54;;;;;;;1999.90;999.90;;;17.50;99.90;;;;;;5055656;28;20514;-74
2023/08/03 08:01:20;;;;;;;1999.90;999.90;;;17.50;99.90;;;;;;5056007;28;20053;-74
2023/08/03 08:03:46;;;;;;;1999.90;999.90;;;17.50;99.90;;;;;;5073708;28;20051;-75
2023/08/03 08:06:17;;;;;;;1999.90;999.90;;;17.50;99.90;;;;;;5073713;28;20052;-73
2023/08/03 08:08:43;;;;;;;1999.90;999.90;;;17.50;99.90;;;;;;5074250;28;20051;-75
2023/08/03 08:11:10;;;;;;;1999.90;999.90;;;17.50;99.90;;;;;;5055759;28;20056;-75
2023/08/03 08:13:36;;;;;;;1999.90;999.90;;;17.60;99.90;;;;;;5073462;28;20036;-76
2023/08/03 08:16:06;;;;;;;1999.90;999.90;;;17.70;99.90;;;;;;5073617;28;20102;-75
2023/08/03 08:18:33;;;;;;;1999.90;999.90;;;17.70;99.90;;;;;;5056059;28;20141;-75
2023/08/03 08:21:04;;;;;;;1999.90;999.90;;;17.80;99.90;;;;;;5073336;28;20131;-75
2023/08/03 08:23:30;;;;;;;1999.90;999.90;;;17.80;99.90;;;;;;5056495;28;20045;-75
2023/08/03 08:25:56;;;;;;;1999.90;999.90;;;17.80;99.90;;;;;;5073434;28;20040;-76
2023/08/03 08:28:22;;;;;;;1999.90;999.90;;;17.80;99.90;;;;;;5073389;28;20045;-79
2023/08/03 08:30:48;;;;;;;1999.90;999.90;;;17.80;99.90;;;;;;5055753;28;20052;-77
2023/08/03 08:33:15;;;;;;;1999.90;999.90;;;17.80;99.90;;;;;;5039076;28;20056;-77
2023/08/03 08:35:42;;;;;;;1999.90;999.90;;;17.80;99.90;;;;;;5055733;28;20052;-77
2023/08/03 08:38:12;;;;;;;1999.90;999.90;;;17.90;99.90;;;;;;5055635;28;20056;-76
2023/08/03 08:40:41;;;;;;;1999.90;999.90;;;18.00;99.90;;;;;;5073372;28;20040;-77
2023/08/03 08:43:08;;;;;;;1999.90;999.90;;;18.00;99.90;;;;;;5055662;28;20549;-76
2023/08/03 08:45:35;;;;;;;1999.90;999.90;;;18.10;99.90;;;;;;5055608;28;20135;-75
2023/08/03 08:48:01;;;;;;;1999.90;999.90;;;18.20;99.90;;;;;;5073807;28;20086;-76
2023/08/03 08:50:27;;;;;;;1999.90;999.90;;;18.30;99.90;;;;;;5073158;28;20041;-77
2023/08/03 08:52:54;;;;;;;1999.90;999.90;;;18.40;99.90;;;;;;5056021;28;20071;-76
2023/08/03 08:55:25;;;;;;;1999.90;999.90;;;18.40;99.90;;;;;;5038879;28;20475;-77
2023/08/03 08:57:51;;;;;;;1999.90;999.90;;;18.50;99.90;;;;;;5055591;28;20552;-77
2023/08/03 09:00:18;;;;;;;1999.90;999.90;;;18.50;99.90;;;;;;5073159;28;20092;-78
2023/08/03 09:02:44;;;;;;;1999.90;999.90;;;18.60;99.90;;;;;;5038763;28;20045;-77
2023/08/03 09:05:17;;;;;;;1999.90;999.90;;;18.60;99.90;;;;;;5039122;28;20053;-77
2023/08/03 09:07:43;;;;;;;1999.90;999.90;;;18.60;99.90;;;;;;5075950;28;20511;-77
2023/08/03 09:10:10;;;;;;;1999.90;999.90;;;18.70;99.90;;;;;;5059108;28;20046;-77
2023/08/03 09:12:39;;;;;;;1999.90;999.90;;;18.80;99.90;;;;;;5077412;28;20052;-79
2023/08/03 09:15:05;;;;;;;1999.90;999.90;;;18.80;99.90;;;;;;5058746;28;20601;-77
2023/08/03 09:17:32;;;;;;;1999.90;999.90;;;18.90;99.90;;;;;;5059842;28;20057;-78
2023/08/03 09:19:58;;;;;;;1999.90;999.90;;;18.90;99.90;;;;;;5076525;28;20103;-77
2023/08/03 09:22:25;;;;;;;1999.90;999.90;;;18.90;99.90;;;;;;5076500;28;20040;-76
2023/08/03 09:25:09;;;;;;;1999.90;999.90;;;19.00;99.90;;;;;;5059572;28;20135;-78
2023/08/03 09:27:37;;;;;;;1999.90;999.90;;;19.10;99.90;;;;;;5076687;28;20108;-77
2023/08/03 09:30:04;;;;;;;1999.90;999.90;;;19.10;99.90;;;;;;5076058;28;20407;-76
2023/08/03 09:32:34;;;;;;;1999.90;999.90;;;19.10;99.90;;;;;;5059149;28;20052;-76
2023/08/03 09:35:00;;;;;;;1999.90;999.90;;;19.10;99.90;;;;;;5076643;28;20055;-77
2023/08/03 09:37:37;;;;;;;1999.90;999.90;;;19.10;99.90;;;;;;5058350;28;20040;-76
2023/08/03 09:40:05;;;;;;;1999.90;999.90;;;19.00;99.90;;;;;;5076738;28;20044;-76
2023/08/03 09:42:32;;;;;;;1999.90;999.90;;;19.00;99.90;;;;;;5058044;28;20048;-76
2023/08/03 09:45:01;;;;;;;1999.90;999.90;;;19.00;99.90;;;;;;5059046;28;20045;-76
2023/08/03 09:47:27;;;;;;;1999.90;999.90;;;19.00;99.90;;;;;;5075450;28;20488;-79
2023/08/03 09:49:53;;;;;;;1999.90;999.90;;;18.90;99.90;;;;;;5057353;28;20513;-77
2023/08/03 09:52:26;;;;;;;1999.90;999.90;;;18.90;99.90;;;;;;5041067;28;20084;-78
2023/08/03 09:55:05;;;;;;;;;;;18.90;99.90;;;;;;5058623;28;20098;-74
2023/08/03 09:57:43;;;;;;;1999.90;999.90;;;18.90;99.90;;;;;;5075443;28;19924;-78
2023/08/03 10:00:12;;;;;;;1999.90;999.90;;;19.00;99.90;;;;;;5075475;28;20048;-75
2023/08/03 10:02:57;;;;;;;1999.90;999.90;;;19.00;99.90;;;;;;5057338;28;20055;-77
2023/08/03 10:05:26;;;;;;;1999.90;999.90;;;19.10;99.90;;;;;;5075254;28;20088;-77
2023/08/03 10:08:15;;;;;;;1999.90;999.90;;;19.10;99.90;;;;;;5057555;28;20406;-77
2023/08/03 10:10:48;;;;;;;1999.90;999.90;;;19.10;99.90;;;;;;5057559;28;20382;-78
2023/08/03 10:13:14;;;;;;;1999.90;999.90;;;19.10;99.90;;;;;;5040775;28;20449;-77
2023/08/03 10:15:41;;;;;;;1999.90;999.90;;;19.10;99.90;;;;;;5075347;28;20142;-77
2023/08/03 10:18:07;;;;;;;1999.90;999.90;;;19.10;99.90;;;;;;5040592;28;20129;-78
2023/08/03 10:20:34;;;;;;;1999.90;999.90;;;19.10;99.90;;;;;;5056982;28;20049;-78
2023/08/03 10:23:21;;;;;;;1999.90;999.90;;;19.10;99.90;;;;;;5074690;28;20178;-78
2023/08/03 10:26:00;;;;;;;1999.90;999.90;;;19.10;99.90;;;;;;5056834;28;20063;-78
2023/08/03 10:28:38;;;;;;;1999.90;999.90;;;19.10;99.90;;;;;;5040260;28;20105;-78
2023/08/03 10:31:11;;;;;;;1999.90;999.90;;;19.10;99.90;;;;;;5056784;28;20055;-77
2023/08/03 10:33:45;;;;;;;;;;;19.20;99.90;;;;;;5057492;28;20123;-77
2023/08/03 10:36:38;;;;;;;1999.90;999.90;;;19.30;99.90;;;;;;5056752;28;19971;-78
2023/08/03 10:39:13;;;;;;;1999.90;999.90;;;19.40;99.90;;;;;;5074551;28;20099;-76
2023/08/03 10:41:49;;;;;;;1999.90;999.90;;;19.40;99.90;;;;;;5074393;28;20098;-78
2023/08/03 10:44:14;;;;;;;1999.90;999.90;;;19.40;99.90;;;;;;5057633;28;20053;-78
2023/08/03 10:46:40;;;;;;;1999.90;999.90;;;19.50;99.90;;;;;;5056726;28;20044;-78
2023/08/03 10:49:18;;;;;;;1999.90;999.90;;;19.50;99.90;;;;;;5057477;28;20044;-78
2023/08/03 10:52:30;;;;;;;1999.90;999.90;;;19.50;99.90;;;;;;5056484;28;20052;-78
2023/08/03 10:54:58;;;;;;;1999.90;999.90;;;19.60;99.90;;;;;;5052433;28;20088;-79
2023/08/03 10:57:33;;;;;;;1999.90;999.90;;;19.60;99.90;;;;;;5056140;28;20045;-79
2023/08/03 11:00:01;;;;;;;1999.90;999.90;;;19.70;99.90;;;;;;5056354;28;20430;-79
2023/08/03 11:02:33;;;;;;;1999.90;999.90;;;19.70;99.90;;;;;;5056337;28;20087;-78
2023/08/03 11:05:04;;;;;;;1999.90;999.90;;;19.70;99.90;;;;;;5056085;28;20068;-75
2023/08/03 11:07:39;;;;;;;1999.90;999.90;;;19.80;99.90;;;;;;5056682;28;20121;-79
2023/08/03 11:10:07;;;;;;;1999.90;999.90;;;19.80;99.90;;;;;;5057051;28;20044;-80
2023/08/03 11:12:34;;;;;;;1999.90;999.90;;;19.80;99.90;;;;;;5056051;28;20036;-78
2023/08/03 11:15:02;;;;;;;1999.90;999.90;;;19.70;99.90;;;;;;5056017;28;20389;-77
2023/08/03 11:17:30;;;;;;;1999.90;999.90;;;19.60;99.90;;;;;;5056683;28;20047;-79
2023/08/03 11:20:00;;;;;;;1999.90;999.90;;;19.60;99.90;;;;;;5055749;28;20045;-78
2023/08/03 11:22:27;;;;;;;1999.90;999.90;;;19.60;99.90;;;;;;5055935;28;20048;-78
2023/08/03 11:24:55;;;;;;;1999.90;999.90;;;19.60;99.90;;;;;;5055817;28;20090;-79
2023/08/03 11:27:21;;;;;;;1999.90;999.90;;;19.60;99.90;;;;;;5040068;28;20098;-78
2023/08/03 11:29:48;;;;;;;1999.90;999.90;;;19.60;99.90;;;;;;5055428;28;20052;-77
2023/08/03 11:32:28;;;;;;;1999.90;999.90;;;19.50;99.90;;;;;;5073423;28;20080;-79
2023/08/03 11:35:05;;;;;;;1999.90;999.90;;;19.50;99.90;;;;;;5073404;28;20048;-79
2023/08/03 11:37:33;;;;;;;1999.90;999.90;;;19.50;99.90;;;;;;5056583;28;20367;-79
2023/08/03 11:40:00;;;;;;;1999.90;999.90;;;19.50;99.90;;;;;;5073468;28;20075;-77
2023/08/03 11:42:27;;;;;;;1999.90;999.90;;;19.60;99.90;;;;;;5074147;28;20048;-78
2023/08/03 11:44:53;;;;;;;1999.90;999.90;;;19.60;99.90;;;;;;5073795;28;20048;-77
2023/08/03 11:47:19;;;;;;;1999.90;999.90;;;19.70;99.90;;;;;;5074164;28;20432;-79
2023/08/03 11:49:47;;;;;;;1999.90;999.90;;;19.80;99.90;;;;;;5055708;28;20356;-78
2023/08/03 11:52:22;;;;;;;1999.90;999.90;;;19.80;99.90;;;;;;5073318;28;20048;-79
2023/08/03 11:54:49;;;;;;;1999.90;999.90;;;19.90;99.90;;;;;;5039162;28;20127;-78
2023/08/03 12:00:02;;;;;;;1999.90;999.90;;;20.10;99.90;;;;;;5073756;28;20044;-79
2023/08/03 12:02:37;;;;;;;1999.90;999.90;;;20.20;99.90;;;;;;5073253;28;20044;-80
2023/08/03 12:05:03;;;;;;;1999.90;999.90;;;20.20;99.90;;;;;;5055543;28;20052;-81
2023/08/03 12:07:29;;;;;;;1999.90;999.90;;;20.20;99.90;;;;;;5056324;28;20090;-77